Time;durP1;ratioP1;P1;durP2;ratioP2;P2;SDS_P1;SDS_P2;PMS_P1;PMS_P2;Temp;Humidity;BMP_temperature;BMP_pressure;BME280_temperature;BME280_humidity;BME280_pressure;Samples;Min_cycle;Max_cycle;Signal;HPM_P1;HPM_P2
2023/09/17 00:01:27;;;;;;;107.38;62.90;;;27.00;99.90;;;;;;5016421;28;20030;-67
2023/09/17 00:03:54;;;;;;;113.28;65.28;;;27.00;99.90;;;;;;5016281;28;20101;-65
2023/09/17 00:06:20;;;;;;;114.53;66.57;;;27.00;99.90;;;;;;5015847;28;20437;-66
2023/09/17 00:08:47;;;;;;;111.75;67.30;;;27.10;99.90;;;;;;5016138;28;20058;-67
2023/09/17 00:11:14;;;;;;;113.93;63.25;;;27.10;99.90;;;;;;5015778;28;20053;-66
2023/09/17 00:13:41;;;;;;;113.82;68.43;;;27.10;99.90;;;;;;5016083;28;20041;-65
2023/09/17 00:16:08;;;;;;;104.45;65.28;;;27.10;99.90;;;;;;5016191;28;20028;-67
2023/09/17 00:18:34;;;;;;;106.13;67.78;;;27.00;99.90;;;;;;5003154;28;20019;-67
2023/09/17 00:21:01;;;;;;;95.85;63.25;;;27.00;99.90;;;;;;5003917;28;20400;-67
2023/09/17 00:23:28;;;;;;;95.30;60.72;;;27.00;99.90;;;;;;5006165;28;20412;-66
2023/09/17 00:25:54;;;;;;;93.63;60.53;;;27.00;99.90;;;;;;4996414;28;20037;-66
2023/09/17 00:28:21;;;;;;;97.82;58.30;;;27.00;99.90;;;;;;4996579;28;20030;-67
2023/09/17 00:30:47;;;;;;;98.78;59.58;;;27.00;99.90;;;;;;4995972;28;20440;-66
2023/09/17 00:33:14;;;;;;;108.00;66.20;;;27.10;99.90;;;;;;5005832;28;20080;-65
2023/09/17 00:35:40;;;;;;;97.15;61.67;;;27.10;99.90;;;;;;5035144;28;20079;-65
2023/09/17 00:38:07;;;;;;;103.68;64.72;;;27.10;99.90;;;;;;5034715;28;20036;-65
2023/09/17 00:40:37;;;;;;;112.20;63.90;;;27.10;99.90;;;;;;5034953;28;20022;-65
2023/09/17 00:43:03;;;;;;;106.82;64.10;;;27.20;99.90;;;;;;5035566;28;20462;-64
2023/09/17 00:45:32;;;;;;;99.15;61.40;;;27.30;99.90;;;;;;5035350;28;20028;-65
2023/09/17 00:48:00;;;;;;;200.00;116.20;;;27.30;99.90;;;;;;5035240;28;20029;-66
2023/09/17 00:50:27;;;;;;;113.82;64.45;;;27.30;99.90;;;;;;5035230;28;20029;-65
2023/09/17 00:52:53;;;;;;;102.65;55.08;;;27.30;99.90;;;;;;5034931;28;20053;-66
2023/09/17 00:55:20;;;;;;;97.75;55.05;;;27.40;99.90;;;;;;5031906;28;20061;-66
2023/09/17 00:57:47;;;;;;;102.03;54.75;;;27.40;99.90;;;;;;5015471;28;20112;-66
2023/09/17 01:00:14;;;;;;;104.40;54.40;;;27.50;99.90;;;;;;5015025;28;20081;-66
2023/09/17 01:02:42;;;;;;;97.38;50.38;;;27.50;99.90;;;;;;5015047;28;20110;-66
2023/09/17 01:05:09;;;;;;;126.85;51.83;;;27.60;99.90;;;;;;5015095;28;20029;-67
2023/09/17 01:07:36;;;;;;;114.32;51.13;;;27.60;99.90;;;;;;5013469;28;20021;-65
2023/09/17 01:10:04;;;;;;;83.95;53.10;;;27.70;99.90;;;;;;5014904;28;20493;-66
2023/09/17 01:12:32;;;;;;;90.15;55.33;;;27.70;99.90;;;;;;5010832;28;20107;-66
2023/09/17 01:14:59;;;;;;;85.90;51.67;;;27.70;99.90;;;;;;5014716;28;20392;-66
2023/09/17 01:17:27;;;;;;;86.50;51.22;;;27.80;99.90;;;;;;5015052;28;20048;-65
2023/09/17 01:19:56;;;;;;;78.55;49.72;;;27.80;99.90;;;;;;5014262;28;20473;-65
2023/09/17 01:22:34;;;;;;;91.35;49.60;;;27.80;99.90;;;;;;5010095;28;20515;-65
2023/09/17 01:25:07;;;;;;;88.80;51.55;;;27.90;99.90;;;;;;5013910;28;20036;-66
2023/09/17 01:27:39;;;;;;;82.68;53.15;;;27.90;99.90;;;;;;5014475;28;20025;-66
2023/09/17 01:30:15;;;;;;;86.85;56.10;;;28.00;99.90;;;;;;5014549;28;20033;-66
2023/09/17 01:32:43;;;;;;;95.90;55.95;;;28.00;99.90;;;;;;5012973;28;20033;-66
2023/09/17 01:35:15;;;;;;;85.45;55.78;;;28.00;99.90;;;;;;5014368;28;20037;-65
2023/09/17 01:37:51;;;;;;;98.50;59.20;;;28.10;99.90;;;;;;5012647;28;20030;-66
2023/09/17 01:40:18;;;;;;;107.20;67.93;;;28.20;99.90;;;;;;5014220;28;20034;-66
2023/09/17 01:42:47;;;;;;;114.80;68.63;;;28.30;99.90;;;;;;5014446;28;20439;-66
2023/09/17 01:45:16;;;;;;;114.32;73.47;;;28.40;99.90;;;;;;5014298;28;20026;-65
2023/09/17 01:47:45;;;;;;;140.85;76.03;;;28.40;99.90;;;;;;5012559;28;20029;-65
2023/09/17 01:50:16;;;;;;;153.95;88.72;;;28.50;99.90;;;;;;5002003;28;20042;-65
2023/09/17 01:52:44;;;;;;;161.55;96.15;;;28.60;99.90;;;;;;5014042;28;20049;-66
2023/09/17 01:55:12;;;;;;;184.85;108.57;;;28.70;99.90;;;;;;5013048;28;20134;-66
2023/09/17 01:57:39;;;;;;;208.48;127.40;;;28.80;99.90;;;;;;5012796;28;20541;-65
2023/09/17 02:00:16;;;;;;;186.75;113.60;;;29.00;99.90;;;;;;5013328;28;20096;-65
2023/09/17 02:02:47;;;;;;;183.57;108.80;;;29.00;99.90;;;;;;5014020;28;20026;-64
2023/09/17 02:05:16;;;;;;;173.13;107.70;;;29.10;99.90;;;;;;5014192;28;20045;-65
2023/09/17 02:07:45;;;;;;;193.40;107.20;;;29.20;99.90;;;;;;5010827;28;20278;-65
2023/09/17 02:10:12;;;;;;;195.60;118.78;;;29.40;99.90;;;;;;4997347;28;20026;-66
2023/09/17 02:12:38;;;;;;;201.02;118.80;;;29.50;99.90;;;;;;5002801;28;20032;-64
2023/09/17 02:15:06;;;;;;;209.20;118.30;;;29.50;99.90;;;;;;4994479;28;20054;-66
2023/09/17 02:17:32;;;;;;;203.20;115.90;;;29.70;99.90;;;;;;4994266;28;20026;-66
2023/09/17 02:19:59;;;;;;;185.30;116.47;;;29.70;99.90;;;;;;4976834;28;20018;-66
2023/09/17 02:22:26;;;;;;;178.45;111.82;;;29.70;99.90;;;;;;4994128;28;20046;-66
2023/09/17 02:24:53;;;;;;;210.80;119.25;;;29.80;99.90;;;;;;4994194;28;20018;-66
2023/09/17 02:27:20;;;;;;;198.52;124.85;;;29.80;99.90;;;;;;5005545;28;20488;-65
2023/09/17 02:29:47;;;;;;;180.07;113.60;;;29.80;99.90;;;;;;5013576;28;20049;-65
2023/09/17 02:32:13;;;;;;;206.25;119.88;;;29.90;99.90;;;;;;5013480;28;20026;-65
2023/09/17 02:34:40;;;;;;;187.07;108.22;;;30.00;99.90;;;;;;5013630;28;20113;-66
2023/09/17 02:37:07;;;;;;;165.80;92.15;;;30.00;99.90;;;;;;5013272;28;20036;-66
2023/09/17 02:39:35;;;;;;;162.43;93.88;;;30.10;99.90;;;;;;5006572;28;20109;-65
2023/09/17 02:42:02;;;;;;;161.23;92.72;;;30.10;99.90;;;;;;4993827;28;20026;-65
2023/09/17 02:44:29;;;;;;;157.60;91.95;;;30.20;99.90;;;;;;4993735;28;20367;-66
2023/09/17 02:46:55;;;;;;;174.13;106.95;;;30.20;99.90;;;;;;4993230;28;20066;-67
2023/09/17 02:49:22;;;;;;;192.55;114.60;;;30.20;99.90;;;;;;5013147;28;20149;-65
2023/09/17 02:51:51;;;;;;;195.55;114.80;;;30.20;99.90;;;;;;5013311;28;20030;-67
2023/09/17 02:54:18;;;;;;;207.57;119.70;;;30.10;99.90;;;;;;5013325;28;20109;-67
2023/09/17 02:56:45;;;;;;;175.65;108.18;;;30.10;99.90;;;;;;5013248;28;20053;-66
2023/09/17 02:59:11;;;;;;;192.38;110.78;;;30.10;99.90;;;;;;5012724;28;20018;-66
2023/09/17 03:01:40;;;;;;;179.15;108.03;;;30.10;99.90;;;;;;5012503;28;20061;-66
2023/09/17 03:04:07;;;;;;;187.38;108.30;;;30.20;99.90;;;;;;5012747;28;20026;-66
2023/09/17 03:06:33;;;;;;;235.25;123.95;;;30.20;99.90;;;;;;5013204;28;20383;-65
2023/09/17 03:09:01;;;;;;;205.45;115.30;;;30.10;99.90;;;;;;5013281;28;20061;-64
2023/09/17 03:11:28;;;;;;;163.20;92.05;;;30.10;99.90;;;;;;5013346;28;20440;-65
2023/09/17 03:13:56;;;;;;;179.90;96.57;;;30.10;99.90;;;;;;5013175;28;20041;-66
2023/09/17 03:16:22;;;;;;;226.35;125.75;;;30.10;99.90;;;;;;5014968;28;20026;-66
2023/09/17 03:18:49;;;;;;;238.43;131.73;;;30.20;99.90;;;;;;5032456;28;20056;-66
2023/09/17 03:21:16;;;;;;;272.55;149.18;;;30.20;99.90;;;;;;5029604;28;20025;-65
2023/09/17 03:23:42;;;;;;;286.50;158.52;;;30.20;99.90;;;;;;5032461;28;20503;-65
2023/09/17 03:26:10;;;;;;;284.35;157.70;;;30.20;99.90;;;;;;5032542;28;20019;-65
2023/09/17 03:28:36;;;;;;;295.33;167.82;;;30.30;99.90;;;;;;5027356;28;20371;-66
2023/09/17 03:31:03;;;;;;;299.50;177.27;;;30.50;99.90;;;;;;5032398;28;20120;-65
2023/09/17 03:33:30;;;;;;;337.30;199.50;;;30.50;99.90;;;;;;5032294;28;20381;-64
2023/09/17 03:35:58;;;;;;;361.23;208.80;;;30.50;99.90;;;;;;5027059;28;20017;-66
2023/09/17 03:38:24;;;;;;;347.40;205.45;;;30.50;99.90;;;;;;5032223;28;20043;-65
2023/09/17 03:40:51;;;;;;;346.75;194.32;;;30.60;99.90;;;;;;5032247;28;20018;-65
2023/09/17 03:43:18;;;;;;;343.33;190.52;;;30.80;99.90;;;;;;5027034;28;20017;-65
2023/09/17 03:45:45;;;;;;;323.40;186.18;;;30.90;99.90;;;;;;5032570;28;20021;-65
2023/09/17 03:48:12;;;;;;;306.63;176.10;;;30.90;99.90;;;;;;5032330;28;20029;-65
2023/09/17 03:50:40;;;;;;;307.88;180.98;;;31.00;99.90;;;;;;5032721;28;20065;-65
2023/09/17 03:53:07;;;;;;;300.35;166.02;;;31.00;99.90;;;;;;5032806;28;20036;-64
2023/09/17 03:55:35;;;;;;;283.50;159.38;;;31.10;99.90;;;;;;5032462;28;20546;-65
2023/09/17 03:58:03;;;;;;;313.05;180.35;;;31.10;99.90;;;;;;5033816;28;20464;-64
2023/09/17 04:00:30;;;;;;;314.48;178.30;;;31.10;99.90;;;;;;5036101;28;20100;-65
2023/09/17 04:02:57;;;;;;;243.35;136.75;;;31.10;99.90;;;;;;5036179;28;20053;-65
2023/09/17 04:05:24;;;;;;;244.98;132.25;;;31.10;99.90;;;;;;5078875;22;20052;-66
2023/09/17 04:07:50;;;;;;;313.15;169.35;;;31.20;99.90;;;;;;5070997;28;20035;-64
2023/09/17 04:10:18;;;;;;;313.05;174.48;;;31.30;99.90;;;;;;5065029;28;20134;-64
2023/09/17 04:12:47;;;;;;;335.85;191.27;;;31.30;99.90;;;;;;5063446;28;20040;-65
2023/09/17 04:15:17;;;;;;;321.45;186.45;;;31.40;99.90;;;;;;5055881;28;20100;-64
2023/09/17 04:17:47;;;;;;;336.02;181.45;;;31.50;99.90;;;;;;5055720;28;20551;-65
2023/09/17 04:20:18;;;;;;;309.27;170.50;;;31.60;99.90;;;;;;5055626;28;20036;-66
2023/09/17 04:22:47;;;;;;;243.45;136.27;;;31.70;99.90;;;;;;5055856;28;20391;-66
2023/09/17 04:25:15;;;;;;;234.05;133.30;;;31.80;99.90;;;;;;5055571;28;20051;-65
2023/09/17 04:27:42;;;;;;;225.18;121.53;;;31.90;99.90;;;;;;5055599;28;20033;-66
2023/09/17 04:30:09;;;;;;;200.95;111.47;;;31.90;99.90;;;;;;5061138;28;20036;-65
2023/09/17 04:32:37;;;;;;;179.60;100.88;;;31.90;99.90;;;;;;5066964;28;20021;-65
2023/09/17 04:35:09;;;;;;;135.00;74.70;;;31.90;99.90;;;;;;5059319;28;20052;-66
2023/09/17 04:37:38;;;;;;;113.28;64.60;;;31.90;99.90;;;;;;5058910;28;20466;-67
2023/09/17 04:40:08;;;;;;;93.78;51.42;;;31.90;99.90;;;;;;5074762;28;20417;-72
2023/09/17 04:42:38;;;;;;;72.45;38.90;;;31.90;99.90;;;;;;5056941;28;20024;-68
2023/09/17 04:45:06;;;;;;;107.43;34.03;;;32.00;99.90;;;;;;5067269;28;20035;-68
2023/09/17 04:47:34;;;;;;;47.60;26.75;;;32.00;99.90;;;;;;5067235;28;20115;-67
2023/09/17 04:50:02;;;;;;;43.72;25.20;;;32.10;99.90;;;;;;5058883;28;20028;-67
2023/09/17 04:52:28;;;;;;;44.13;23.35;;;32.10;99.90;;;;;;5064587;28;20051;-68
2023/09/17 04:54:55;;;;;;;40.53;22.02;;;32.10;99.90;;;;;;5068138;28;20427;-67
2023/09/17 04:57:21;;;;;;;36.17;18.95;;;32.20;99.90;;;;;;5071109;28;20048;-66
2023/09/17 04:59:49;;;;;;;32.45;19.35;;;32.20;99.90;;;;;;5059160;28;20021;-68
2023/09/17 05:02:16;;;;;;;32.95;18.00;;;32.40;99.90;;;;;;5070653;28;20078;-66
2023/09/17 05:04:44;;;;;;;30.58;19.80;;;32.40;99.90;;;;;;5079845;28;20028;-68
2023/09/17 05:07:11;;;;;;;35.33;18.17;;;32.50;99.90;;;;;;5081976;28;20020;-68
2023/09/17 05:09:38;;;;;;;34.17;18.83;;;32.60;99.90;;;;;;5076842;28;20028;-68
2023/09/17 05:12:06;;;;;;;33.50;18.83;;;32.80;99.90;;;;;;5085238;28;20077;-68
2023/09/17 05:14:32;;;;;;;32.25;20.73;;;32.80;99.90;;;;;;5081041;28;20115;-68
2023/09/17 05:16:59;;;;;;;30.52;20.80;;;32.80;99.90;;;;;;5073776;28;20446;-67
2023/09/17 05:19:25;;;;;;;35.60;21.60;;;32.80;99.90;;;;;;5079454;28;20016;-71
2023/09/17 05:21:52;;;;;;;35.22;18.05;;;32.90;99.90;;;;;;5083425;28;20042;-67
2023/09/17 05:24:19;;;;;;;29.60;16.52;;;32.90;99.90;;;;;;5085412;28;20024;-70
2023/09/17 05:26:45;;;;;;;27.10;17.23;;;32.90;99.90;;;;;;5075084;28;20031;-69
2023/09/17 05:29:16;;;;;;;31.80;17.92;;;33.00;99.90;;;;;;5076377;28;20021;-69
2023/09/17 05:31:44;;;;;;;27.00;18.33;;;32.90;99.90;;;;;;5076003;28;20012;-70
2023/09/17 05:34:12;;;;;;;29.30;18.95;;;32.90;99.90;;;;;;5069005;28;20063;-69
2023/09/17 05:36:39;;;;;;;28.67;18.90;;;32.90;99.90;;;;;;5072907;28;20032;-70
2023/09/17 05:39:06;;;;;;;37.33;20.08;;;32.80;99.90;;;;;;5088991;28;20029;-67
2023/09/17 05:41:32;;;;;;;33.28;18.25;;;32.70;99.90;;;;;;5092069;28;20023;-71
2023/09/17 05:44:00;;;;;;;47.75;20.80;;;32.60;99.90;;;;;;5092629;28;20027;-70
2023/09/17 05:46:27;;;;;;;39.38;21.67;;;32.50;99.90;;;;;;5092066;28;20019;-70
2023/09/17 05:48:54;;;;;;;37.38;21.40;;;32.40;99.90;;;;;;5092599;28;20063;-69
2023/09/17 05:51:20;;;;;;;40.10;21.92;;;32.30;99.90;;;;;;5085295;28;20463;-71
2023/09/17 05:53:47;;;;;;;33.75;21.63;;;32.30;99.90;;;;;;5083791;28;20470;-72
2023/09/17 05:56:13;;;;;;;32.72;22.58;;;32.20;99.90;;;;;;5083539;28;20021;-70
2023/09/17 05:58:40;;;;;;;42.55;23.40;;;32.10;99.90;;;;;;5083469;28;20462;-68
2023/09/17 06:01:07;;;;;;;34.17;21.38;;;32.10;99.90;;;;;;5084214;28;20023;-70
2023/09/17 06:03:34;;;;;;;37.20;22.45;;;32.10;99.90;;;;;;5081374;28;20025;-69
2023/09/17 06:06:00;;;;;;;37.13;22.83;;;32.10;99.90;;;;;;5084495;28;20040;-71
2023/09/17 06:08:28;;;;;;;50.35;24.17;;;32.20;99.90;;;;;;5081529;28;20028;-66
2023/09/17 06:10:55;;;;;;;35.53;23.13;;;32.20;99.90;;;;;;5083993;28;20216;-70
2023/09/17 06:13:22;;;;;;;40.28;23.80;;;32.30;99.90;;;;;;5082388;28;20107;-67
2023/09/17 06:15:49;;;;;;;38.92;24.50;;;32.30;99.90;;;;;;5086862;28;20031;-69
2023/09/17 06:18:17;;;;;;;50.75;26.33;;;32.30;99.90;;;;;;5081830;28;20501;-67
2023/09/17 06:20:44;;;;;;;48.33;28.95;;;32.30;99.90;;;;;;5080574;28;20415;-66
2023/09/17 06:23:10;;;;;;;45.20;27.05;;;32.30;99.90;;;;;;5082338;28;20016;-67
2023/09/17 06:25:37;;;;;;;41.83;25.85;;;32.30;99.90;;;;;;5083358;28;20008;-68
2023/09/17 06:28:04;;;;;;;43.25;25.67;;;32.20;99.90;;;;;;5079264;28;20043;-64
2023/09/17 06:30:31;;;;;;;35.67;25.08;;;32.20;99.90;;;;;;5078383;28;20029;-64
2023/09/17 06:32:57;;;;;;;35.17;24.83;;;32.20;99.90;;;;;;5074689;28;20135;-64
2023/09/17 06:35:24;;;;;;;33.63;24.60;;;32.20;99.90;;;;;;5076084;28;20012;-65
2023/09/17 06:37:51;;;;;;;37.13;24.20;;;32.20;99.90;;;;;;5089061;28;20360;-66
2023/09/17 06:40:17;;;;;;;33.88;22.98;;;32.20;99.90;;;;;;5087363;28;20507;-66
2023/09/17 06:42:44;;;;;;;37.80;22.55;;;32.30;99.90;;;;;;5085237;28;20496;-68
2023/09/17 06:45:11;;;;;;;41.75;26.40;;;32.30;99.90;;;;;;5082376;28;20016;-68
2023/09/17 06:47:38;;;;;;;39.92;26.67;;;32.40;99.90;;;;;;5082182;28;20104;-66
2023/09/17 06:50:06;;;;;;;41.22;25.65;;;32.40;99.90;;;;;;5082079;28;20020;-66
2023/09/17 06:52:33;;;;;;;43.67;24.92;;;32.50;99.90;;;;;;5081921;28;20052;-67
2023/09/17 06:54:59;;;;;;;39.03;22.77;;;32.50;99.90;;;;;;5083280;28;20021;-67
2023/09/17 06:57:26;;;;;;;41.13;20.73;;;32.60;99.90;;;;;;5081449;28;20023;-67
2023/09/17 06:59:53;;;;;;;29.65;17.83;;;32.50;99.90;;;;;;5083815;28;20042;-67
2023/09/17 07:02:20;;;;;;;30.85;19.38;;;32.40;99.90;;;;;;5075477;28;20470;-67
2023/09/17 07:04:47;;;;;;;43.92;26.13;;;32.40;99.90;;;;;;5082725;28;20041;-66
2023/09/17 07:07:14;;;;;;;48.35;29.75;;;32.40;99.90;;;;;;5082034;28;20044;-67
2023/09/17 07:09:41;;;;;;;66.10;38.63;;;32.40;99.90;;;;;;5083797;28;20021;-68
2023/09/17 07:12:07;;;;;;;45.80;31.05;;;32.40;99.90;;;;;;5083431;28;20032;-67
2023/09/17 07:14:34;;;;;;;39.30;25.67;;;32.40;99.90;;;;;;5078856;28;20436;-70
2023/09/17 07:17:01;;;;;;;39.85;28.27;;;32.50;99.90;;;;;;5079597;28;20036;-68
2023/09/17 07:19:27;;;;;;;55.50;30.05;;;32.60;99.90;;;;;;5078963;28;20041;-69
2023/09/17 07:21:54;;;;;;;33.38;24.40;;;32.60;99.90;;;;;;5079410;28;20402;-71
2023/09/17 07:24:22;;;;;;;32.95;21.15;;;32.60;99.90;;;;;;5079906;28;20398;-68
2023/09/17 07:26:49;;;;;;;22.88;15.90;;;32.60;99.90;;;;;;5082606;28;20039;-68
2023/09/17 07:29:15;;;;;;;22.30;15.05;;;32.60;99.90;;;;;;5084289;28;20016;-69
2023/09/17 07:31:44;;;;;;;30.77;16.50;;;32.60;99.90;;;;;;5079330;28;20028;-71
2023/09/17 07:34:10;;;;;;;26.95;16.20;;;32.50;99.90;;;;;;5080466;28;20056;-71
2023/09/17 07:36:37;;;;;;;36.03;22.73;;;32.50;99.90;;;;;;5085632;28;20020;-70
2023/09/17 07:39:03;;;;;;;40.42;26.80;;;32.50;99.90;;;;;;5085653;28;20020;-70
2023/09/17 07:41:30;;;;;;;49.50;34.35;;;32.40;99.90;;;;;;5086794;28;20017;-67
2023/09/17 07:43:57;;;;;;;60.03;40.58;;;32.40;99.90;;;;;;5083240;28;20008;-68
2023/09/17 07:46:24;;;;;;;61.60;42.67;;;32.40;99.90;;;;;;5084791;28;20043;-69
2023/09/17 07:48:50;;;;;;;53.67;37.33;;;32.40;99.90;;;;;;5071473;28;21023;-68
2023/09/17 07:51:17;;;;;;;52.15;31.30;;;32.30;99.90;;;;;;5057734;28;20070;-67
2023/09/17 07:53:43;;;;;;;65.30;35.75;;;32.20;99.90;;;;;;5063066;28;20035;-68
2023/09/17 07:56:10;;;;;;;52.47;33.50;;;31.80;99.90;;;;;;5076037;28;20044;-68
2023/09/17 07:58:37;;;;;;;59.05;34.38;;;31.60;99.90;;;;;;5075974;28;20097;-69
2023/09/17 08:01:06;;;;;;;46.97;28.90;;;31.50;99.90;;;;;;5075903;28;20024;-68
2023/09/17 08:03:32;;;;;;;49.72;27.50;;;31.40;99.90;;;;;;5076243;28;20017;-68
2023/09/17 08:05:59;;;;;;;40.15;28.52;;;31.30;99.90;;;;;;5076221;28;20041;-68
2023/09/17 08:08:26;;;;;;;46.42;27.80;;;31.10;99.90;;;;;;5075793;28;20027;-68
2023/09/17 08:10:54;;;;;;;53.88;33.33;;;31.00;99.90;;;;;;5075829;28;20036;-68
2023/09/17 08:13:20;;;;;;;54.78;31.80;;;31.00;99.90;;;;;;5075841;28;20028;-68
2023/09/17 08:15:50;;;;;;;55.97;31.00;;;30.90;99.90;;;;;;5075802;28;20028;-65
2023/09/17 08:18:17;;;;;;;51.38;32.50;;;30.90;99.90;;;;;;5075761;28;20020;-64
2023/09/17 08:20:44;;;;;;;55.45;33.13;;;30.90;99.90;;;;;;5075855;28;20024;-65
2023/09/17 08:23:10;;;;;;;52.22;32.65;;;30.80;99.90;;;;;;5075652;28;20074;-65
2023/09/17 08:25:37;;;;;;;53.50;33.42;;;30.90;99.90;;;;;;5075483;28;20459;-65
2023/09/17 08:28:03;;;;;;;56.15;34.35;;;31.00;99.90;;;;;;5075644;28;20475;-65
2023/09/17 08:30:30;;;;;;;58.85;37.92;;;31.10;99.90;;;;;;5075485;28;20020;-65
2023/09/17 08:32:59;;;;;;;60.90;36.92;;;31.10;99.90;;;;;;5075558;28;20100;-65
2023/09/17 08:35:26;;;;;;;59.80;36.00;;;31.20;99.90;;;;;;5075706;28;20025;-66
2023/09/17 08:37:52;;;;;;;52.20;33.75;;;31.20;99.90;;;;;;5075250;28;20035;-66
2023/09/17 08:40:23;;;;;;;50.70;33.03;;;31.30;99.90;;;;;;5075476;28;20044;-66
2023/09/17 08:42:50;;;;;;;50.65;33.58;;;31.30;99.90;;;;;;5075447;28;20021;-67
2023/09/17 08:45:19;;;;;;;54.47;35.35;;;31.40;99.90;;;;;;5074197;28;20021;-67
2023/09/17 08:47:45;;;;;;;58.55;37.40;;;31.40;99.90;;;;;;5073950;28;20402;-66
2023/09/17 08:50:12;;;;;;;62.10;39.10;;;31.40;99.90;;;;;;5075350;28;20025;-66
2023/09/17 08:52:42;;;;;;;64.20;39.05;;;31.40;99.90;;;;;;5075186;28;20024;-66
2023/09/17 08:55:10;;;;;;;58.30;38.85;;;31.40;99.90;;;;;;5075238;28;20024;-67
2023/09/17 08:57:40;;;;;;;65.25;41.42;;;31.50;99.90;;;;;;5075013;28;20028;-66
2023/09/17 09:00:09;;;;;;;69.63;43.88;;;31.50;99.90;;;;;;5074987;28;20021;-66
2023/09/17 09:02:54;;;;;;;67.38;44.95;;;31.60;99.90;;;;;;5074876;28;20020;-67
2023/09/17 09:05:25;;;;;;;87.18;51.78;;;31.60;99.90;;;;;;5074763;28;20044;-66
2023/09/17 09:07:53;;;;;;;78.75;51.28;;;31.70;99.90;;;;;;5074919;28;20024;-66
2023/09/17 09:10:20;;;;;;;93.82;60.03;;;31.60;99.90;;;;;;5074705;28;20475;-66
2023/09/17 09:12:48;;;;;;;85.85;54.83;;;31.60;99.90;;;;;;5074548;28;20025;-66
2023/09/17 09:15:14;;;;;;;93.60;55.08;;;31.60;99.90;;;;;;5074673;28;20103;-66
2023/09/17 09:17:41;;;;;;;85.43;55.45;;;31.70;99.90;;;;;;5074439;28;20029;-66
2023/09/17 09:20:10;;;;;;;84.95;52.75;;;31.70;99.90;;;;;;5074291;28;20035;-66
2023/09/17 09:22:38;;;;;;;81.15;51.83;;;31.70;99.90;;;;;;5074457;28;20027;-66
2023/09/17 09:25:07;;;;;;;83.40;53.40;;;31.70;99.90;;;;;;5074507;28;20027;-66
2023/09/17 09:27:35;;;;;;;87.65;56.70;;;31.60;99.90;;;;;;5074202;28;20396;-66
2023/09/17 09:30:07;;;;;;;89.75;56.65;;;31.60;99.90;;;;;;5074247;28;20380;-66
2023/09/17 09:32:33;;;;;;;79.78;51.95;;;31.60;99.90;;;;;;5074344;28;20048;-67
2023/09/17 09:35:01;;;;;;;78.03;47.15;;;31.60;99.90;;;;;;5074482;28;20040;-66
2023/09/17 09:37:28;;;;;;;83.32;52.20;;;31.40;99.90;;;;;;5074369;28;20497;-67
2023/09/17 09:39:55;;;;;;;75.00;49.03;;;31.30;99.90;;;;;;5074092;28;20376;-65
2023/09/17 09:42:23;;;;;;;138.73;78.95;;;31.30;99.90;;;;;;5074103;28;20012;-67
2023/09/17 09:44:52;;;;;;;94.03;55.50;;;31.30;99.90;;;;;;5074026;28;20078;-67
2023/09/17 09:47:22;;;;;;;109.05;64.70;;;31.30;99.90;;;;;;5073886;28;20107;-65
2023/09/17 09:49:50;;;;;;;172.60;98.90;;;31.20;99.90;;;;;;5073972;28;20391;-67
2023/09/17 09:52:17;;;;;;;69.90;43.40;;;31.10;99.90;;;;;;5073830;28;20056;-66
2023/09/17 09:54:46;;;;;;;108.32;64.82;;;31.10;99.90;;;;;;5073679;28;20024;-66
2023/09/17 09:57:16;;;;;;;493.63;293.45;;;31.10;99.90;;;;;;5073564;28;20025;-66
2023/09/17 09:59:46;;;;;;;102.68;59.05;;;31.00;99.90;;;;;;5073643;28;20107;-67
2023/09/17 10:02:15;;;;;;;60.38;33.10;;;31.00;99.90;;;;;;5073609;28;20036;-67
2023/09/17 10:04:44;;;;;;;66.00;37.90;;;30.90;99.90;;;;;;5073525;28;20049;-67
2023/09/17 10:07:10;;;;;;;79.15;45.05;;;30.80;99.90;;;;;;5073631;28;20020;-66
2023/09/17 10:09:37;;;;;;;131.10;72.00;;;30.80;99.90;;;;;;5073475;28;20028;-66
2023/09/17 10:12:04;;;;;;;69.97;39.05;;;30.70;99.90;;;;;;5073565;28;20103;-66
2023/09/17 10:14:37;;;;;;;60.03;34.97;;;30.70;99.90;;;;;;5073579;28;20013;-67
2023/09/17 10:17:06;;;;;;;76.82;41.47;;;30.70;99.90;;;;;;5073252;28;20020;-67
2023/09/17 10:19:37;;;;;;;98.45;48.78;;;30.70;99.90;;;;;;5073439;28;20020;-66
2023/09/17 10:22:07;;;;;;;55.75;31.67;;;30.70;99.90;;;;;;5073218;28;20023;-66
2023/09/17 10:24:36;;;;;;;41.60;24.83;;;30.60;99.90;;;;;;5073564;28;20024;-66
2023/09/17 10:27:07;;;;;;;47.97;28.88;;;30.50;99.90;;;;;;5073459;28;20364;-66
2023/09/17 10:29:36;;;;;;;58.63;30.83;;;30.30;99.90;;;;;;5073190;28;20025;-66
2023/09/17 10:32:04;;;;;;;53.88;30.10;;;30.20;99.90;;;;;;5073159;28;20049;-64
2023/09/17 10:34:35;;;;;;;61.13;29.65;;;30.20;99.90;;;;;;5073553;28;20029;-64
2023/09/17 10:37:04;;;;;;;49.75;28.27;;;30.30;99.90;;;;;;5073093;28;20024;-68
2023/09/17 10:39:35;;;;;;;60.35;30.15;;;30.20;99.90;;;;;;5073266;28;20098;-73
2023/09/17 10:42:02;;;;;;;55.45;29.58;;;30.00;99.90;;;;;;5073267;28;20052;-73
2023/09/17 10:44:30;;;;;;;53.30;27.80;;;30.00;99.90;;;;;;5073297;28;20027;-72
2023/09/17 10:47:01;;;;;;;44.78;24.40;;;30.00;99.90;;;;;;5073330;28;20032;-74
2023/09/17 10:49:31;;;;;;;51.45;25.90;;;29.90;99.90;;;;;;5073869;28;20025;-73
2023/09/17 10:51:58;;;;;;;104.78;47.67;;;29.90;99.90;;;;;;5073905;28;20463;-72
2023/09/17 10:54:25;;;;;;;80.97;43.08;;;29.80;99.90;;;;;;5074150;28;20431;-72
2023/09/17 10:56:52;;;;;;;53.22;30.45;;;29.70;99.90;;;;;;5074178;28;20048;-71
2023/09/17 10:59:20;;;;;;;53.40;27.85;;;29.70;99.90;;;;;;5074414;28;20048;-72
2023/09/17 11:01:48;;;;;;;47.20;24.67;;;29.70;99.90;;;;;;5073979;28;20028;-71
2023/09/17 11:04:17;;;;;;;39.35;20.73;;;29.60;99.90;;;;;;5073781;28;20483;-72
2023/09/17 11:06:46;;;;;;;32.55;18.17;;;29.50;99.90;;;;;;5073698;28;20037;-70
2023/09/17 11:09:14;;;;;;;35.10;19.98;;;29.40;99.90;;;;;;5077564;28;20024;-71
2023/09/17 11:11:41;;;;;;;29.88;16.25;;;29.30;99.90;;;;;;5077542;28;20028;-71
2023/09/17 11:14:08;;;;;;;34.08;19.00;;;29.20;99.90;;;;;;5077488;28;20044;-71
2023/09/17 11:16:36;;;;;;;30.90;19.08;;;29.20;99.90;;;;;;5077050;28;20109;-71
2023/09/17 11:19:22;;;;;;;36.28;20.02;;;29.30;99.90;;;;;;5077150;28;20023;-71
2023/09/17 11:22:04;;;;;;;45.88;25.38;;;29.30;99.90;;;;;;5077126;28;20049;-72
2023/09/17 11:24:32;;;;;;;39.88;22.75;;;29.40;99.90;;;;;;5077542;28;20107;-70
2023/09/17 11:27:04;;;;;;;44.83;23.88;;;29.40;99.90;;;;;;5077770;28;20060;-71
2023/09/17 11:29:44;;;;;;;45.67;21.17;;;29.30;99.90;;;;;;5076776;28;20059;-72
2023/09/17 11:32:12;;;;;;;45.58;22.35;;;29.30;99.90;;;;;;5076558;28;20056;-71
2023/09/17 11:34:42;;;;;;;42.58;23.13;;;29.40;99.90;;;;;;5076662;28;20028;-69
2023/09/17 11:37:08;;;;;;;42.28;26.20;;;29.20;99.90;;;;;;5076632;28;20470;-71
2023/09/17 11:39:36;;;;;;;46.55;27.10;;;29.30;99.90;;;;;;5076834;28;20042;-72
2023/09/17 11:42:05;;;;;;;48.55;27.13;;;29.30;99.90;;;;;;5076227;28;20024;-71
2023/09/17 11:44:35;;;;;;;43.13;25.75;;;29.30;99.90;;;;;;5076655;28;20024;-71
2023/09/17 11:47:02;;;;;;;45.42;25.15;;;29.30;99.90;;;;;;5076419;28;20023;-70
2023/09/17 11:49:29;;;;;;;49.80;27.30;;;29.40;99.90;;;;;;5076246;28;20051;-67
2023/09/17 11:51:59;;;;;;;53.17;27.15;;;29.40;99.90;;;;;;5076374;28;20017;-72
2023/09/17 11:54:33;;;;;;;49.78;26.42;;;29.40;99.90;;;;;;5076336;28;20497;-71
2023/09/17 11:57:00;;;;;;;47.10;27.13;;;29.40;99.90;;;;;;5076058;28;20028;-71
2023/09/17 11:59:28;;;;;;;55.13;31.40;;;29.50;99.90;;;;;;5076337;28;20382;-70
2023/09/17 12:01:57;;;;;;;53.08;32.70;;;29.50;99.90;;;;;;5076318;28;20478;-70
2023/09/17 12:04:25;;;;;;;56.85;29.00;;;29.40;99.90;;;;;;5075869;28;20025;-70
2023/09/17 12:06:53;;;;;;;48.92;25.48;;;29.50;99.90;;;;;;5076045;28;20446;-71
2023/09/17 12:09:33;;;;;;;46.00;24.23;;;29.50;99.90;;;;;;5076426;28;20502;-71
2023/09/17 12:12:00;;;;;;;50.25;24.77;;;29.40;99.90;;;;;;5075986;28;20028;-69
2023/09/17 12:14:27;;;;;;;51.85;25.33;;;29.30;99.90;;;;;;5076126;28;20027;-71
2023/09/17 12:16:53;;;;;;;43.42;25.25;;;29.30;99.90;;;;;;5075782;28;20433;-71
2023/09/17 12:19:21;;;;;;;47.00;23.73;;;29.40;99.90;;;;;;5074556;28;20056;-69
2023/09/17 12:21:52;;;;;;;42.80;25.77;;;29.40;99.90;;;;;;5074426;28;20052;-71
2023/09/17 12:24:20;;;;;;;48.58;24.10;;;29.50;99.90;;;;;;5075679;28;20074;-71